Chemtrans Mabuhay — A8XX9 — position and weather

sailwx.info

Track history (hours):
 
Tides and Currents Weather Stations Pressure Air Temp Water Temp Dewpoint Dewpoint Depression Visibility Wind Speed Wind Dir Waves Ship Positions

Chemtrans Mabuhay

Last reported at 2014-Aug-27 12:31 UTC. Time now 2014-Aug-27 13:12 UTC.
Position N 29°37' W 095°02'.

Length 140 m; draft 8.8 m.

Type: Ship. MMSI: 636092180.

Date/timePositionNaut miles runAvg speedWind from/ knotsBaromVisibWave heightAir tempDewpointWater temp
2014-Aug-27 12:31N 29°37' W 095°02'0 0.0
2014-Aug-27 11:32N 29°37' W 095°02'0 0.0
2014-Aug-27 10:28N 29°37' W 095°02'0 0.0
2014-Aug-27 09:31N 29°37' W 095°02'0 0.0
2014-Aug-27 08:31N 29°37' W 095°02'0 0.0
2014-Aug-27 07:31N 29°37' W 095°02'0 0.0
2014-Aug-27 06:28N 29°37' W 095°02'0 0.0
2014-Aug-27 05:31N 29°37' W 095°02'0 0.0
2014-Aug-27 04:31N 29°37' W 095°02'0 0.0
2014-Aug-27 03:32N 29°37' W 095°02'0 0.0
2014-Aug-27 02:31N 29°37' W 095°02'0 0.0
2014-Aug-27 01:31N 29°37' W 095°02'0 0.0
2014-Aug-27 00:32N 29°37' W 095°02'0 0.0
2014-Aug-26 23:32N 29°37' W 095°02'0 0.0
2014-Aug-26 22:31N 29°37' W 095°02'0 0.0
2014-Aug-26 21:28N 29°37' W 095°02'0 0.0
2014-Aug-26 20:31N 29°37' W 095°02'0 0.0
2014-Aug-26 19:31N 29°37' W 095°02'0 0.0
2014-Aug-26 18:31N 29°37' W 095°02'0 0.0
2014-Aug-26 17:31N 29°37' W 095°02'0 0.0
2014-Aug-26 16:31N 29°37' W 095°02'0 0.0
2014-Aug-26 15:26N 29°37' W 095°02'0 0.0
2014-Aug-26 14:31N 29°37' W 095°02'0 0.0
2014-Aug-26 13:32N 29°37' W 095°02'0 0.0
2014-Aug-26 12:32N 29°37' W 095°02'0 0.0
2014-Aug-26 11:31N 29°37' W 095°02'0 0.0
2014-Aug-26 10:32N 29°37' W 095°02'0 0.0
2014-Aug-26 09:31N 29°37' W 095°02'0 0.0
2014-Aug-26 08:32N 29°37' W 095°02'0 0.0
2014-Aug-26 07:31N 29°37' W 095°02'0 0.0
2014-Aug-26 06:32N 29°37' W 095°02'0 0.0
2014-Aug-26 05:31N 29°37' W 095°02'0 0.0
2014-Aug-26 04:31N 29°37' W 095°02'0 0.0
2014-Aug-26 03:28N 29°37' W 095°02'0 0.0
2014-Aug-26 02:32N 29°37' W 095°02'13 0.6
2014-Aug-25 03:33N 29°43' W 095°14'6 5.7
2014-Aug-25 02:33N 29°44' W 095°08'2 0.3
2014-Aug-24 20:33N 29°45' W 095°06'0 0.0
2014-Aug-24 19:33N 29°45' W 095°06'0 0.0
2014-Aug-24 18:33N 29°45' W 095°06'0 0.0
2014-Aug-24 17:33N 29°45' W 095°06'0 0.0
2014-Aug-24 16:30N 29°45' W 095°06'0 0.0
2014-Aug-24 15:18N 29°45' W 095°06'0 0.0
2014-Aug-24 14:33N 29°45' W 095°06'0 0.0
2014-Aug-24 13:33N 29°45' W 095°06'0 0.0
2014-Aug-24 12:30N 29°45' W 095°06'0 0.0
2014-Aug-24 11:33N 29°45' W 095°06'0 0.0
2014-Aug-24 10:33N 29°45' W 095°06'0 0.0
2014-Aug-24 09:33N 29°45' W 095°06'0 0.0
2014-Aug-24 08:33N 29°45' W 095°06'0 0.0
2014-Aug-24 07:33N 29°45' W 095°06'2 1.9
2014-Aug-24 06:33N 29°45' W 095°04'9 9.2
2014-Aug-24 05:33N 29°37' W 094°57'1212.0
2014-Aug-24 04:33N 29°27' W 094°50'10 9.7
2014-Aug-24 03:29N 29°20' W 094°41'6 0.3
2014-Aug-23 03:32N 29°14' W 094°39'7 0.5
2014-Aug-22 13:33N 29°21' W 094°43'10 9.6
2014-Aug-22 12:33N 29°23' W 094°53'0 0.0
2014-Aug-21 06:14N 29°23' W 094°54'2 3.6
2014-Aug-21 05:33N 29°22' W 094°51'  
Track history (hours):
 
Tides and Currents Weather Stations Pressure Air Temp Water Temp Dewpoint Dewpoint Depression Visibility Wind Speed Wind Dir Waves Ship Positions

Chemtrans Mabuhay

Last reported at 2014-Aug-27 12:31 UTC. Time now 2014-Aug-27 13:12 UTC.
Position N 29°37' W 095°02'.

Length 140 m; draft 8.8 m.

Type: Ship. MMSI: 636092180.

Date/timePositionNaut miles runAvg speedWind from/ knotsBaromVisibWave heightAir tempDewpointWater temp
2014-Aug-27 12:31N 29°37' W 095°02'0 0.0
2014-Aug-27 11:32N 29°37' W 095°02'0 0.0
2014-Aug-27 10:28N 29°37' W 095°02'0 0.0
2014-Aug-27 09:31N 29°37' W 095°02'0 0.0
2014-Aug-27 08:31N 29°37' W 095°02'0 0.0
2014-Aug-27 07:31N 29°37' W 095°02'0 0.0
2014-Aug-27 06:28N 29°37' W 095°02'0 0.0
2014-Aug-27 05:31N 29°37' W 095°02'0 0.0
2014-Aug-27 04:31N 29°37' W 095°02'0 0.0
2014-Aug-27 03:32N 29°37' W 095°02'0 0.0
2014-Aug-27 02:31N 29°37' W 095°02'0 0.0
2014-Aug-27 01:31N 29°37' W 095°02'0 0.0
2014-Aug-27 00:32N 29°37' W 095°02'0 0.0
2014-Aug-26 23:32N 29°37' W 095°02'0 0.0
2014-Aug-26 22:31N 29°37' W 095°02'0 0.0
2014-Aug-26 21:28N 29°37' W 095°02'0 0.0
2014-Aug-26 20:31N 29°37' W 095°02'0 0.0
2014-Aug-26 19:31N 29°37' W 095°02'0 0.0
2014-Aug-26 18:31N 29°37' W 095°02'0 0.0
2014-Aug-26 17:31N 29°37' W 095°02'0 0.0
2014-Aug-26 16:31N 29°37' W 095°02'0 0.0
2014-Aug-26 15:26N 29°37' W 095°02'0 0.0
2014-Aug-26 14:31N 29°37' W 095°02'0 0.0
2014-Aug-26 13:32N 29°37' W 095°02'0 0.0
2014-Aug-26 12:32N 29°37' W 095°02'0 0.0
2014-Aug-26 11:31N 29°37' W 095°02'0 0.0
2014-Aug-26 10:32N 29°37' W 095°02'0 0.0
2014-Aug-26 09:31N 29°37' W 095°02'0 0.0
2014-Aug-26 08:32N 29°37' W 095°02'0 0.0
2014-Aug-26 07:31N 29°37' W 095°02'0 0.0
2014-Aug-26 06:32N 29°37' W 095°02'0 0.0
2014-Aug-26 05:31N 29°37' W 095°02'0 0.0
2014-Aug-26 04:31N 29°37' W 095°02'0 0.0
2014-Aug-26 03:28N 29°37' W 095°02'0 0.0
2014-Aug-26 02:32N 29°37' W 095°02'13 0.6
2014-Aug-25 03:33N 29°43' W 095°14'6 5.7
2014-Aug-25 02:33N 29°44' W 095°08'2 0.3
2014-Aug-24 20:33N 29°45' W 095°06'0 0.0
2014-Aug-24 19:33N 29°45' W 095°06'0 0.0
2014-Aug-24 18:33N 29°45' W 095°06'0 0.0
2014-Aug-24 17:33N 29°45' W 095°06'0 0.0
2014-Aug-24 16:30N 29°45' W 095°06'0 0.0
2014-Aug-24 15:18N 29°45' W 095°06'0 0.0
2014-Aug-24 14:33N 29°45' W 095°06'0 0.0
2014-Aug-24 13:33N 29°45' W 095°06'0 0.0
2014-Aug-24 12:30N 29°45' W 095°06'0 0.0
2014-Aug-24 11:33N 29°45' W 095°06'0 0.0
2014-Aug-24 10:33N 29°45' W 095°06'0 0.0
2014-Aug-24 09:33N 29°45' W 095°06'0 0.0
2014-Aug-24 08:33N 29°45' W 095°06'0 0.0
2014-Aug-24 07:33N 29°45' W 095°06'2 1.9
2014-Aug-24 06:33N 29°45' W 095°04'9 9.2
2014-Aug-24 05:33N 29°37' W 094°57'1212.0
2014-Aug-24 04:33N 29°27' W 094°50'10 9.7
2014-Aug-24 03:29N 29°20' W 094°41'6 0.3
2014-Aug-23 03:32N 29°14' W 094°39'7 0.5
2014-Aug-22 13:33N 29°21' W 094°43'10 9.6
2014-Aug-22 12:33N 29°23' W 094°53'0 0.0
2014-Aug-21 06:14N 29°23' W 094°54'2 3.6
2014-Aug-21 05:33N 29°22' W 094°51'  

Dump ship's entire track history